Time;durP1;ratioP1;P1;durP2;ratioP2;P2;SDS_P1;SDS_P2;PMS_P1;PMS_P2;Temp;Humidity;BMP_temperature;BMP_pressure;BME280_temperature;BME280_humidity;BME280_pressure;Samples;Min_cycle;Max_cycle;Signal;HPM_P1;HPM_P2
2023/09/21 00:01:02;;;;;;;106.38;55.38;;;20.80;90.70;;;;;;4943422;28;92861;-84
2023/09/21 00:03:30;;;;;;;106.88;55.75;;;20.80;90.90;;;;;;4946098;28;91058;-85
2023/09/21 00:05:56;;;;;;;106.60;55.47;;;20.80;90.80;;;;;;4948091;28;88800;-84
2023/09/21 00:08:25;;;;;;;107.22;55.42;;;20.80;90.80;;;;;;4957937;28;93622;-85
2023/09/21 00:10:52;;;;;;;107.50;55.80;;;20.80;91.00;;;;;;4945154;28;92907;-86
2023/09/21 00:13:18;;;;;;;108.38;56.00;;;20.80;90.80;;;;;;4957889;28;90396;-84
2023/09/21 00:15:45;;;;;;;106.43;55.70;;;20.80;90.90;;;;;;4952718;28;89552;-86
2023/09/21 00:18:10;;;;;;;106.22;55.58;;;20.80;90.90;;;;;;4933111;28;93588;-87
2023/09/21 00:20:42;;;;;;;106.35;55.28;;;20.80;90.80;;;;;;4939877;28;91846;-86
2023/09/21 00:23:13;;;;;;;106.43;55.60;;;20.80;90.70;;;;;;4957654;28;89403;-83
2023/09/21 00:25:38;;;;;;;106.80;55.53;;;20.80;90.80;;;;;;4949822;28;90009;-84
2023/09/21 00:28:04;;;;;;;107.00;55.58;;;20.80;90.50;;;;;;4966060;28;89930;-84
2023/09/21 00:30:30;;;;;;;106.60;55.63;;;20.80;90.60;;;;;;4958318;28;89733;-83
2023/09/21 00:32:56;;;;;;;106.40;55.28;;;20.90;90.70;;;;;;4960894;28;90625;-88
2023/09/21 00:35:23;;;;;;;107.72;55.88;;;20.90;90.70;;;;;;4964471;28;90014;-88
2023/09/21 00:37:48;;;;;;;106.75;55.17;;;20.90;90.60;;;;;;4945716;28;93645;-84
2023/09/21 00:40:17;;;;;;;106.18;55.38;;;20.90;90.50;;;;;;4957720;28;91017;-84
2023/09/21 00:42:44;;;;;;;106.80;55.42;;;20.90;90.60;;;;;;4962378;28;89373;-83
2023/09/21 00:45:10;;;;;;;107.07;55.72;;;20.90;90.60;;;;;;4943327;28;89249;-80
2023/09/21 00:47:44;;;;;;;106.53;55.35;;;20.90;90.50;;;;;;4966817;28;90198;-83
2023/09/21 00:50:12;;;;;;;107.05;55.30;;;20.90;90.60;;;;;;4959595;28;90536;-81
2023/09/21 00:52:43;;;;;;;106.40;55.42;;;20.90;90.50;;;;;;4943491;28;89225;-83
2023/09/21 00:55:16;;;;;;;106.78;55.15;;;20.90;90.70;;;;;;4961425;28;88831;-81
2023/09/21 00:57:43;;;;;;;108.07;55.60;;;20.90;90.50;;;;;;4947431;28;93206;-80
2023/09/21 01:00:16;;;;;;;106.90;55.75;;;20.80;90.50;;;;;;4947103;28;92564;-82
2023/09/21 01:02:43;;;;;;;106.32;55.50;;;20.80;90.30;;;;;;4958897;28;90693;-82
2023/09/21 01:05:12;;;;;;;106.25;55.50;;;20.90;90.50;;;;;;4949719;28;90180;-81
2023/09/21 01:07:39;;;;;;;106.13;55.20;;;20.80;90.30;;;;;;4959857;28;93015;-82
2023/09/21 01:10:07;;;;;;;105.82;55.38;;;20.80;90.40;;;;;;4949144;28;92455;-81
2023/09/21 01:12:34;;;;;;;106.43;55.55;;;20.80;90.40;;;;;;4945730;28;89661;-83
2023/09/21 01:15:04;;;;;;;105.97;55.55;;;20.80;90.60;;;;;;4952111;28;89505;-85
2023/09/21 01:17:30;;;;;;;106.07;55.30;;;20.80;90.70;;;;;;4958505;28;93680;-85
2023/09/21 01:19:57;;;;;;;106.18;55.45;;;20.80;90.50;;;;;;4958185;28;89515;-81
2023/09/21 01:22:25;;;;;;;105.95;55.33;;;20.80;90.60;;;;;;4943295;28;90024;-83
2023/09/21 01:24:51;;;;;;;105.40;55.17;;;20.80;90.70;;;;;;4944017;28;90160;-82
2023/09/21 01:27:17;;;;;;;106.20;55.28;;;20.80;90.60;;;;;;4957110;28;91339;-83
2023/09/21 01:29:44;;;;;;;105.63;55.28;;;20.80;90.60;;;;;;4946957;28;93531;-82
2023/09/21 01:32:09;;;;;;;105.53;55.03;;;20.80;90.40;;;;;;4944390;28;89985;-82
2023/09/21 01:34:35;;;;;;;105.88;55.40;;;20.80;90.70;;;;;;4951365;28;90404;-82
2023/09/21 01:37:01;;;;;;;107.25;55.40;;;20.80;90.60;;;;;;4939576;28;93124;-84
2023/09/21 01:39:27;;;;;;;106.90;55.55;;;20.80;90.50;;;;;;4938882;28;92533;-84
2023/09/21 01:41:53;;;;;;;105.55;55.30;;;20.80;90.70;;;;;;4936659;28;89831;-85
2023/09/21 01:44:22;;;;;;;105.80;55.25;;;20.80;90.70;;;;;;4946453;28;89456;-83
2023/09/21 01:46:49;;;;;;;106.55;55.33;;;20.80;90.40;;;;;;4956718;28;93351;-82
2023/09/21 01:49:16;;;;;;;106.05;55.20;;;20.70;90.70;;;;;;4940703;28;92743;-81
2023/09/21 01:51:42;;;;;;;105.93;55.33;;;20.70;90.80;;;;;;4941784;28;91165;-86
2023/09/21 01:54:07;;;;;;;105.07;55.10;;;20.80;90.60;;;;;;4952008;28;89824;-81
2023/09/21 01:56:34;;;;;;;105.55;55.35;;;20.70;90.80;;;;;;4943864;28;93081;-82
2023/09/21 01:59:00;;;;;;;105.30;55.10;;;20.70;90.80;;;;;;4941561;28;92813;-82
2023/09/21 02:01:26;;;;;;;105.70;55.55;;;20.70;90.70;;;;;;4943081;28;89657;-81
2023/09/21 02:03:56;;;;;;;106.15;55.17;;;20.70;90.60;;;;;;4964107;28;89516;-83
2023/09/21 02:06:22;;;;;;;105.50;55.35;;;20.70;90.80;;;;;;4944753;28;92993;-83
2023/09/21 02:08:49;;;;;;;107.47;55.50;;;20.70;90.80;;;;;;4955447;28;89354;-83
2023/09/21 02:11:14;;;;;;;106.05;55.35;;;20.60;90.80;;;;;;4942502;28;90351;-83
2023/09/21 02:13:40;;;;;;;106.38;55.45;;;20.60;90.90;;;;;;4939485;28;89600;-82
2023/09/21 02:16:06;;;;;;;105.55;55.20;;;20.60;90.80;;;;;;4957251;28;91431;-81
2023/09/21 02:18:33;;;;;;;105.90;55.30;;;20.60;90.80;;;;;;4941298;28;93423;-82
2023/09/21 02:21:00;;;;;;;105.93;55.50;;;20.70;90.80;;;;;;4952067;28;89507;-82
2023/09/21 02:23:25;;;;;;;105.20;55.13;;;20.60;90.90;;;;;;4936305;28;90370;-87
2023/09/21 02:25:55;;;;;;;105.72;55.20;;;20.60;91.10;;;;;;4938799;28;92946;-83
2023/09/21 02:28:22;;;;;;;106.30;55.42;;;20.60;90.90;;;;;;4938165;28;92648;-83
2023/09/21 02:30:48;;;;;;;105.18;54.97;;;20.60;91.00;;;;;;4935804;28;89514;-82
2023/09/21 02:33:17;;;;;;;105.78;55.30;;;20.60;91.00;;;;;;4935402;28;89437;-82
2023/09/21 02:35:44;;;;;;;106.68;55.22;;;20.60;91.10;;;;;;4958337;28;89691;-82
2023/09/21 02:38:13;;;;;;;106.18;55.45;;;20.50;90.90;;;;;;4941537;28;93006;-82
2023/09/21 02:40:42;;;;;;;105.60;55.60;;;20.50;91.10;;;;;;4936489;28;90448;-82
2023/09/21 02:43:08;;;;;;;107.70;55.05;;;20.50;91.10;;;;;;4946027;28;89655;-83
2023/09/21 02:45:36;;;;;;;105.63;55.33;;;20.50;91.00;;;;;;4936670;28;92541;-83
2023/09/21 02:48:02;;;;;;;105.20;55.03;;;20.50;91.20;;;;;;4938356;28;94197;-82
2023/09/21 02:50:30;;;;;;;105.70;55.55;;;20.50;91.50;;;;;;4962781;28;89350;-81
2023/09/21 02:52:57;;;;;;;105.78;54.95;;;20.40;91.40;;;;;;4980496;28;94359;-82
2023/09/21 02:55:27;;;;;;;104.97;55.22;;;20.40;91.40;;;;;;4958169;28;93336;-82
2023/09/21 02:58:12;;;;;;;106.25;55.35;;;20.40;91.50;;;;;;4962276;28;92998;-84
2023/09/21 03:00:42;;;;;;;105.20;55.13;;;20.30;91.50;;;;;;4955069;28;90216;-82
2023/09/21 03:03:22;;;;;;;106.53;55.47;;;20.30;91.40;;;;;;4954010;28;90132;-82
2023/09/21 03:05:51;;;;;;;106.07;55.65;;;20.30;91.60;;;;;;4956754;28;94819;-83
2023/09/21 03:08:18;;;;;;;106.45;55.20;;;20.30;91.80;;;;;;4963239;28;93428;-82
2023/09/21 03:10:52;;;;;;;105.45;55.20;;;20.30;91.90;;;;;;4961061;28;89557;-86
2023/09/21 03:13:19;;;;;;;106.82;55.55;;;20.30;91.80;;;;;;4960479;28;89591;-82
2023/09/21 03:15:50;;;;;;;105.90;55.00;;;20.30;91.70;;;;;;4961772;28;90683;-83
2023/09/21 03:18:18;;;;;;;106.15;54.83;;;20.30;91.90;;;;;;4960951;28;93581;-81
2023/09/21 03:20:44;;;;;;;105.28;55.13;;;20.20;91.60;;;;;;4960257;28;90763;-82
2023/09/21 03:23:11;;;;;;;106.25;55.17;;;20.20;91.80;;;;;;4956456;28;89152;-83
2023/09/21 03:25:47;;;;;;;106.35;55.17;;;20.20;92.00;;;;;;4973530;28;90064;-83
2023/09/21 03:28:14;;;;;;;105.55;55.28;;;20.20;92.10;;;;;;4955662;28;93636;-86
2023/09/21 03:30:41;;;;;;;105.60;55.17;;;20.20;91.90;;;;;;4979492;28;90563;-84
2023/09/21 03:33:07;;;;;;;106.47;55.58;;;20.10;91.90;;;;;;4965910;28;90104;-81
2023/09/21 03:35:33;;;;;;;104.88;55.00;;;20.10;92.40;;;;;;4984894;28;93054;-81
2023/09/21 03:37:59;;;;;;;105.82;55.28;;;20.20;92.00;;;;;;4979968;28;91206;-81
2023/09/21 03:40:26;;;;;;;104.95;55.08;;;20.20;92.20;;;;;;4979198;28;89330;-82
2023/09/21 03:42:55;;;;;;;105.47;55.13;;;20.20;92.10;;;;;;4967380;28;90020;-82
2023/09/21 03:45:22;;;;;;;104.90;55.00;;;20.10;91.90;;;;;;4984071;28;91989;-82
2023/09/21 03:47:48;;;;;;;105.28;54.95;;;20.10;92.10;;;;;;4969480;28;92350;-81
2023/09/21 03:50:14;;;;;;;107.28;55.58;;;20.10;92.20;;;;;;4992831;28;91178;-81
2023/09/21 03:52:42;;;;;;;104.97;55.00;;;20.10;91.90;;;;;;4992761;28;89349;-85
2023/09/21 03:55:17;;;;;;;104.97;55.00;;;20.10;92.00;;;;;;5007353;28;91094;-83
2023/09/21 03:57:46;;;;;;;105.57;55.13;;;20.10;92.10;;;;;;4978238;28;93191;-81
2023/09/21 04:00:29;;;;;;;105.75;55.10;;;20.10;92.40;;;;;;4976438;28;90200;-81
2023/09/21 04:02:59;;;;;;;104.38;54.70;;;20.00;92.10;;;;;;4985719;28;89188;-82
2023/09/21 04:05:26;;;;;;;105.95;55.33;;;20.00;92.50;;;;;;4962969;28;92805;-81
2023/09/21 04:07:52;;;;;;;105.53;54.97;;;20.00;92.20;;;;;;4964757;28;92690;-83
2023/09/21 04:10:18;;;;;;;105.03;54.85;;;20.10;92.50;;;;;;4980437;28;89629;-80
2023/09/21 04:12:44;;;;;;;104.43;54.88;;;20.10;92.40;;;;;;4961967;28;88964;-81
2023/09/21 04:15:11;;;;;;;105.65;55.15;;;20.00;92.20;;;;;;4978522;28;92644;-80
2023/09/21 04:17:40;;;;;;;106.13;54.95;;;20.00;92.20;;;;;;4962198;28;92938;-81
2023/09/21 04:20:11;;;;;;;105.32;55.00;;;20.00;92.40;;;;;;4979533;28;92052;-81
2023/09/21 04:22:41;;;;;;;106.32;55.03;;;20.00;91.90;;;;;;4959512;28;89621;-82
2023/09/21 04:25:09;;;;;;;105.95;54.75;;;20.00;92.10;;;;;;4963205;28;92751;-81
2023/09/21 04:27:40;;;;;;;105.35;54.58;;;20.00;92.30;;;;;;4961323;28;92701;-85
2023/09/21 04:30:14;;;;;;;104.63;54.67;;;20.00;92.00;;;;;;4956399;28;89543;-82
2023/09/21 04:32:40;;;;;;;105.07;54.80;;;19.90;91.90;;;;;;4956352;28;90413;-81
2023/09/21 04:35:06;;;;;;;106.38;54.60;;;19.90;91.90;;;;;;4973468;28;90244;-81
2023/09/21 04:37:34;;;;;;;104.60;54.88;;;19.80;91.90;;;;;;4975893;28;90116;-81
2023/09/21 04:40:06;;;;;;;104.85;54.25;;;19.80;92.20;;;;;;4959608;28;89501;-82
2023/09/21 04:42:32;;;;;;;104.63;54.35;;;19.70;92.30;;;;;;4966199;28;90023;-82
2023/09/21 04:44:59;;;;;;;104.50;54.60;;;19.70;92.50;;;;;;4981205;28;91163;-82
2023/09/21 04:47:25;;;;;;;104.15;54.00;;;19.60;92.70;;;;;;4953515;28;94875;-81
2023/09/21 04:49:54;;;;;;;105.72;54.47;;;19.60;92.60;;;;;;4958566;28;93095;-82
2023/09/21 04:52:21;;;;;;;104.22;54.17;;;19.50;92.60;;;;;;4958539;28;90095;-87
2023/09/21 04:54:51;;;;;;;105.18;54.33;;;19.40;92.70;;;;;;4978124;28;94626;-82
2023/09/21 04:57:18;;;;;;;103.73;54.13;;;19.40;92.80;;;;;;4972899;28;90812;-82
2023/09/21 04:59:44;;;;;;;104.40;54.20;;;19.40;93.00;;;;;;4974881;28;89503;-82
2023/09/21 05:02:10;;;;;;;104.10;54.47;;;19.40;93.20;;;;;;4957103;28;89023;-82
2023/09/21 05:04:36;;;;;;;104.32;54.47;;;19.30;93.00;;;;;;4976384;28;90472;-84
2023/09/21 05:07:01;;;;;;;104.20;54.55;;;19.30;93.20;;;;;;4963585;28;91701;-84
2023/09/21 05:09:27;;;;;;;104.03;54.50;;;19.30;93.20;;;;;;4958547;28;91079;-84
2023/09/21 05:11:53;;;;;;;103.65;53.78;;;19.30;93.10;;;;;;4956461;28;89754;-82
2023/09/21 05:14:20;;;;;;;105.57;54.35;;;19.20;93.00;;;;;;4951836;28;93361;-82
2023/09/21 05:16:47;;;;;;;104.70;54.45;;;19.20;93.20;;;;;;4956564;28;92723;-82
2023/09/21 05:19:13;;;;;;;103.82;53.95;;;19.30;93.40;;;;;;4975258;28;89976;-83
2023/09/21 05:21:40;;;;;;;103.50;54.25;;;19.20;93.20;;;;;;4961315;28;90129;-82
2023/09/21 05:24:07;;;;;;;103.95;54.28;;;19.20;93.80;;;;;;4962622;28;93170;-89
2023/09/21 05:26:33;;;;;;;105.78;54.28;;;19.30;93.50;;;;;;4970482;28;92334;-85
2023/09/21 05:28:58;;;;;;;105.25;54.10;;;19.30;92.90;;;;;;4961916;28;90487;-85
2023/09/21 05:31:24;;;;;;;103.95;54.15;;;19.40;94.00;;;;;;4963555;28;89896;-83
2023/09/21 05:33:49;;;;;;;106.35;54.53;;;19.40;93.50;;;;;;4973343;28;90580;-84
2023/09/21 05:36:15;;;;;;;106.03;54.30;;;19.40;94.00;;;;;;4977978;28;92294;-84
2023/09/21 05:38:41;;;;;;;107.35;54.47;;;19.40;93.00;;;;;;4963187;28;89603;-83
2023/09/21 05:41:06;;;;;;;107.45;54.88;;;19.30;93.50;;;;;;4962053;28;90000;-85
2023/09/21 05:43:32;;;;;;;111.95;55.45;;;19.40;94.50;;;;;;4958912;28;93147;-83
2023/09/21 05:45:58;;;;;;;112.07;55.67;;;19.50;94.50;;;;;;4973369;28;92459;-83
2023/09/21 05:48:24;;;;;;;109.57;55.67;;;19.60;93.90;;;;;;4936343;28;89350;-83
2023/09/21 05:50:49;;;;;;;105.13;54.72;;;19.60;93.00;;;;;;4944620;28;89207;-80
2023/09/21 05:53:16;;;;;;;107.72;55.08;;;19.50;92.90;;;;;;4938111;28;92708;-83
2023/09/21 05:55:45;;;;;;;109.20;55.58;;;19.40;92.90;;;;;;4948453;28;92073;-84
2023/09/21 05:58:10;;;;;;;111.30;56.08;;;19.40;92.70;;;;;;4940984;28;91838;-82
2023/09/21 06:00:36;;;;;;;106.03;55.25;;;19.40;92.90;;;;;;4947145;28;89650;-82
2023/09/21 06:03:02;;;;;;;116.15;57.70;;;19.30;92.70;;;;;;4954344;28;91159;-83
2023/09/21 06:05:29;;;;;;;104.75;54.20;;;19.30;93.20;;;;;;4961857;28;89829;-84
2023/09/21 06:07:54;;;;;;;104.55;54.45;;;18.90;90.50;;;;;;4947914;28;89808;-82
2023/09/21 06:10:22;;;;;;;109.40;55.30;;;17.80;93.30;;;;;;4943207;28;89363;-83
2023/09/21 06:12:47;;;;;;;105.93;54.42;;;17.30;96.00;;;;;;4963800;28;93172;-83
2023/09/21 06:15:13;;;;;;;105.28;54.42;;;17.20;95.80;;;;;;4942069;28;92830;-85
2023/09/21 06:17:40;;;;;;;102.70;54.13;;;17.10;96.00;;;;;;4940197;28;89574;-86
2023/09/21 06:20:06;;;;;;;104.63;54.30;;;16.70;96.90;;;;;;4949165;28;90705;-83
2023/09/21 06:22:32;;;;;;;104.82;54.10;;;16.80;97.90;;;;;;4942544;28;95129;-87
2023/09/21 06:24:57;;;;;;;104.97;54.25;;;16.60;97.80;;;;;;4945382;28;92955;-85
2023/09/21 06:27:23;;;;;;;105.35;54.15;;;16.60;98.30;;;;;;4962428;28;90227;-86
2023/09/21 06:29:52;;;;;;;105.50;54.25;;;16.40;98.30;;;;;;4952123;28;90262;-84
2023/09/21 06:32:18;;;;;;;102.60;53.63;;;16.50;99.20;;;;;;4946172;28;92217;-85
2023/09/21 06:34:45;;;;;;;106.35;54.30;;;16.50;98.10;;;;;;4950480;28;93191;-82
2023/09/21 06:37:14;;;;;;;105.03;53.83;;;16.40;99.00;;;;;;4945828;28;89294;-82
2023/09/21 06:39:40;;;;;;;102.75;53.70;;;16.30;99.50;;;;;;4941883;28;88643;-84
2023/09/21 06:42:06;;;;;;;103.60;53.75;;;16.40;99.30;;;;;;4960229;28;89421;-84
2023/09/21 06:44:31;;;;;;;104.10;53.83;;;16.40;98.70;;;;;;4956193;28;90738;-86
2023/09/21 06:46:57;;;;;;;105.18;53.92;;;16.40;98.50;;;;;;4957730;28;90560;-84
2023/09/21 06:49:23;;;;;;;104.53;53.40;;;16.20;99.40;;;;;;4944393;28;89640;-83
2023/09/21 06:51:49;;;;;;;105.50;53.88;;;16.10;99.50;;;;;;4942581;28;92742;-86
2023/09/21 06:54:15;;;;;;;102.68;53.53;;;16.30;99.90;;;;;;4956230;28;90293;-85
2023/09/21 06:56:41;;;;;;;102.97;53.70;;;16.20;99.70;;;;;;4942236;28;91917;-82
2023/09/21 06:59:07;;;;;;;101.90;53.55;;;16.20;99.90;;;;;;4939534;28;89130;-88
2023/09/21 07:01:34;;;;;;;102.32;53.72;;;16.20;99.90;;;;;;4942070;28;92747;-87
2023/09/21 07:04:00;;;;;;;102.80;53.00;;;16.10;99.90;;;;;;4942270;28;92355;-82
2023/09/21 07:06:25;;;;;;;102.53;53.72;;;16.30;99.90;;;;;;4962173;28;89244;-86
2023/09/21 07:08:52;;;;;;;107.15;53.80;;;16.20;99.90;;;;;;4945288;28;90432;-86
2023/09/21 07:11:20;;;;;;;105.25;53.60;;;16.20;99.90;;;;;;4940488;28;93623;-84
2023/09/21 07:13:47;;;;;;;104.20;54.00;;;16.20;99.90;;;;;;4950387;28;92866;-87
2023/09/21 07:16:13;;;;;;;113.43;54.55;;;16.10;99.90;;;;;;4944941;28;89168;-85
2023/09/21 07:18:39;;;;;;;105.07;54.47;;;16.20;99.90;;;;;;4946616;28;89757;-85
2023/09/21 07:21:05;;;;;;;108.18;54.58;;;16.40;99.90;;;;;;4942468;28;92994;-84
2023/09/21 07:23:31;;;;;;;111.47;54.85;;;16.50;99.90;;;;;;4954973;28;90774;-88
2023/09/21 07:25:57;;;;;;;111.45;54.70;;;16.60;99.90;;;;;;4957053;28;89925;-89
2023/09/21 07:28:24;;;;;;;114.50;55.13;;;16.60;99.90;;;;;;4954959;28;90502;-83
2023/09/21 07:30:53;;;;;;;110.20;54.58;;;16.50;99.90;;;;;;4944136;28;92458;-84
2023/09/21 07:33:20;;;;;;;110.22;54.42;;;16.50;99.90;;;;;;4939843;28;92134;-83
2023/09/21 07:35:47;;;;;;;107.65;53.97;;;16.50;99.90;;;;;;4958790;28;90375;-80
2023/09/21 07:38:12;;;;;;;104.10;54.35;;;16.40;99.90;;;;;;4945307;28;90293;-85
2023/09/21 07:40:38;;;;;;;103.43;54.05;;;16.30;99.90;;;;;;4939906;28;91970;-84
2023/09/21 07:43:04;;;;;;;106.32;54.17;;;16.30;99.90;;;;;;4940007;28;92481;-89
2023/09/21 07:45:30;;;;;;;104.45;53.75;;;16.30;99.90;;;;;;4959333;28;89121;-83
2023/09/21 07:47:56;;;;;;;103.47;53.67;;;16.40;99.90;;;;;;4956593;28;89899;-82
2023/09/21 07:50:26;;;;;;;104.35;54.15;;;16.30;99.90;;;;;;4962317;28;92965;-89
2023/09/21 07:52:54;;;;;;;103.88;53.40;;;16.40;99.90;;;;;;4987231;28;91504;-84
2023/09/21 07:55:19;;;;;;;103.78;53.50;;;16.30;99.90;;;;;;4973698;28;89047;-85
2023/09/21 07:57:47;;;;;;;103.90;53.78;;;16.20;99.90;;;;;;4978958;28;89230;-84
2023/09/21 08:00:15;;;;;;;103.22;53.35;;;16.30;99.90;;;;;;4961137;28;93845;-86
2023/09/21 08:02:41;;;;;;;102.13;53.50;;;16.30;99.90;;;;;;4983492;28;91251;-86
2023/09/21 08:05:09;;;;;;;102.78;53.60;;;16.30;99.90;;;;;;4982588;28;89058;-86
2023/09/21 08:07:36;;;;;;;105.78;53.72;;;16.30;99.90;;;;;;4970007;28;88992;-87
2023/09/21 08:10:05;;;;;;;102.55;53.38;;;16.30;99.90;;;;;;4974932;28;93631;-83
2023/09/21 08:12:31;;;;;;;107.10;53.75;;;16.30;99.90;;;;;;4986617;28;91739;-86
2023/09/21 08:15:00;;;;;;;101.90;53.35;;;16.30;99.90;;;;;;4971900;28;89009;-88
2023/09/21 08:17:29;;;;;;;101.57;53.78;;;16.30;99.90;;;;;;4981444;28;88340;-85
2023/09/21 08:19:55;;;;;;;103.93;53.67;;;16.50;99.90;;;;;;4956058;28;91163;-82
2023/09/21 08:22:21;;;;;;;112.45;54.45;;;16.40;99.90;;;;;;4969388;28;90945;-84
2023/09/21 08:24:47;;;;;;;102.75;53.13;;;16.80;99.90;;;;;;4974883;28;90886;-84
2023/09/21 08:27:12;;;;;;;104.95;53.65;;;16.20;98.40;;;;;;4974486;28;91233;-85
2023/09/21 08:29:40;;;;;;;100.75;52.92;;;16.20;99.90;;;;;;4957739;28;92803;-84
2023/09/21 08:32:05;;;;;;;100.30;53.17;;;16.40;99.30;;;;;;4960459;28;93619;-83
2023/09/21 08:34:31;;;;;;;101.15;52.90;;;16.30;98.80;;;;;;4962966;28;89187;-84
2023/09/21 08:36:57;;;;;;;101.18;52.92;;;16.20;99.00;;;;;;4973224;28;90464;-87
2023/09/21 08:39:22;;;;;;;100.68;53.00;;;16.40;98.10;;;;;;4957608;28;92916;-81
2023/09/21 08:41:50;;;;;;;100.53;53.17;;;16.50;97.00;;;;;;4961411;28;92636;-87
2023/09/21 08:44:19;;;;;;;100.78;53.05;;;16.30;97.00;;;;;;4980080;28;91822;-86
2023/09/21 08:46:49;;;;;;;101.32;52.92;;;16.40;98.40;;;;;;4958793;28;89731;-85
2023/09/21 08:49:16;;;;;;;100.40;53.00;;;16.40;97.00;;;;;;4947695;28;93789;-83
2023/09/21 08:51:42;;;;;;;101.50;53.15;;;16.40;97.50;;;;;;4939717;28;93490;-82
2023/09/21 08:54:08;;;;;;;101.00;52.90;;;16.50;98.30;;;;;;4943454;28;89973;-84
2023/09/21 08:56:36;;;;;;;102.20;53.15;;;16.40;96.70;;;;;;4943077;28;89805;-85
2023/09/21 08:59:03;;;;;;;101.97;53.25;;;16.30;96.40;;;;;;4946488;28;93852;-86
2023/09/21 09:01:29;;;;;;;99.85;53.05;;;16.40;96.80;;;;;;4941000;28;92461;-88
2023/09/21 09:03:54;;;;;;;100.70;52.95;;;16.20;96.00;;;;;;4961198;28;89517;-83
2023/09/21 09:06:20;;;;;;;100.55;53.15;;;16.00;96.50;;;;;;4948574;28;89353;-85
2023/09/21 09:08:46;;;;;;;103.18;53.42;;;15.90;96.80;;;;;;4942706;28;93611;-84
2023/09/21 09:11:36;;;;;;;101.03;53.40;;;15.90;97.30;;;;;;4949005;28;91650;-83
2023/09/21 09:14:03;;;;;;;100.30;53.30;;;16.00;97.50;;;;;;4941187;28;90597;-82
2023/09/21 09:16:30;;;;;;;101.07;53.60;;;16.10;97.50;;;;;;4961650;28;89182;-85
2023/09/21 09:18:57;;;;;;;100.75;53.42;;;16.40;96.90;;;;;;4956244;28;92728;-83
2023/09/21 09:21:25;;;;;;;100.88;53.63;;;16.10;97.00;;;;;;4959607;28;89406;-84
2023/09/21 09:23:50;;;;;;;101.30;53.50;;;16.00;98.80;;;;;;4960996;28;90084;-83
2023/09/21 09:26:18;;;;;;;101.07;53.75;;;15.90;98.10;;;;;;4958310;28;89073;-84
2023/09/21 09:28:43;;;;;;;103.03;53.63;;;16.00;97.50;;;;;;4956543;28;92485;-86
2023/09/21 09:31:11;;;;;;;102.70;53.60;;;15.90;97.50;;;;;;4947216;28;90722;-89
2023/09/21 09:33:40;;;;;;;99.93;53.10;;;16.00;97.60;;;;;;4943723;28;89105;-86
2023/09/21 09:36:06;;;;;;;101.32;53.58;;;16.00;98.20;;;;;;4948206;28;89323;-85
2023/09/21 09:38:33;;;;;;;100.70;53.60;;;15.90;97.60;;;;;;4945127;28;94107;-86
2023/09/21 09:41:04;;;;;;;100.32;53.28;;;16.00;98.10;;;;;;4958537;28;92920;-86
2023/09/21 09:43:30;;;;;;;;;;;16.10;98.40;;;;;;4959356;28;89723;-88
2023/09/21 09:45:58;;;;;;;100.65;53.35;;;16.10;97.70;;;;;;4952725;28;88708;-86
2023/09/21 09:48:25;;;;;;;101.07;53.38;;;16.10;97.60;;;;;;4946526;28;92903;-86
2023/09/21 09:50:57;;;;;;;102.55;53.80;;;16.10;97.70;;;;;;4960145;28;89330;-86
2023/09/21 09:53:24;;;;;;;100.75;53.60;;;16.10;97.60;;;;;;4941964;28;90225;-89
2023/09/21 09:55:53;;;;;;;104.15;54.25;;;16.10;97.40;;;;;;4941734;28;88390;-86
2023/09/21 09:58:20;;;;;;;105.97;53.85;;;16.20;98.40;;;;;;4954571;28;90202;-86
2023/09/21 10:00:47;;;;;;;104.78;54.15;;;16.40;97.60;;;;;;4942744;28;91793;-87
2023/09/21 10:03:13;;;;;;;104.25;54.58;;;16.50;97.60;;;;;;4946295;28;90178;-86
2023/09/21 10:05:39;;;;;;;106.13;54.67;;;16.60;99.10;;;;;;4945743;28;89078;-86
2023/09/21 10:08:07;;;;;;;106.30;54.22;;;16.50;98.20;;;;;;4961578;28;89973;-84
2023/09/21 10:10:36;;;;;;;103.35;54.17;;;16.80;97.30;;;;;;4946830;28;92216;-87
2023/09/21 10:13:02;;;;;;;103.35;54.35;;;16.70;97.60;;;;;;4942613;28;89361;-83
2023/09/21 10:15:29;;;;;;;103.63;54.25;;;16.70;98.10;;;;;;4944213;28;89826;-84
2023/09/21 10:17:57;;;;;;;105.07;54.45;;;16.70;98.30;;;;;;4945459;28;95058;-84
2023/09/21 10:20:27;;;;;;;106.20;54.03;;;16.70;98.80;;;;;;4944530;28;92584;-84
2023/09/21 10:22:54;;;;;;;103.53;53.92;;;16.60;98.80;;;;;;4970714;28;88790;-86
2023/09/21 10:25:38;;;;;;;106.40;54.20;;;16.70;98.60;;;;;;4972697;28;89875;-90
2023/09/21 10:28:28;;;;;;;103.95;53.58;;;16.70;97.80;;;;;;4963743;28;91113;-84
2023/09/21 10:31:06;;;;;;;103.90;53.97;;;16.80;99.00;;;;;;4957993;28;90557;-84
2023/09/21 10:33:35;;;;;;;105.03;54.38;;;16.70;99.20;;;;;;4961410;28;89187;-84
2023/09/21 10:36:01;;;;;;;104.97;53.92;;;16.70;98.10;;;;;;4946433;28;88954;-87
2023/09/21 10:38:27;;;;;;;106.45;54.15;;;16.90;98.50;;;;;;4944049;28;92982;-88
2023/09/21 10:40:53;;;;;;;108.00;54.45;;;16.80;99.00;;;;;;4943320;28;92620;-86
2023/09/21 10:43:37;;;;;;;107.25;54.33;;;17.00;99.20;;;;;;4951757;28;89730;-88
2023/09/21 10:46:16;;;;;;;106.82;54.25;;;17.10;99.40;;;;;;4959459;28;88224;-84
2023/09/21 10:48:45;;;;;;;107.60;54.33;;;17.20;98.90;;;;;;4966269;28;92970;-90
2023/09/21 10:51:10;;;;;;;108.22;54.30;;;17.20;98.50;;;;;;4950170;28;92668;-88
2023/09/21 10:53:37;;;;;;;108.88;54.45;;;17.20;99.00;;;;;;4960314;28;90738;-91
2023/09/21 10:56:02;;;;;;;107.55;53.95;;;17.30;99.40;;;;;;4954268;28;89293;-84
2023/09/21 10:58:32;;;;;;;108.57;54.42;;;17.30;99.60;;;;;;4959378;28;90021;-85
2023/09/21 11:01:00;;;;;;;106.22;53.97;;;17.20;99.40;;;;;;4957358;28;93186;-88
2023/09/21 11:03:29;;;;;;;106.25;53.75;;;17.20;99.00;;;;;;4949573;28;89147;-85
2023/09/21 11:05:56;;;;;;;107.68;53.97;;;17.20;98.80;;;;;;4942947;28;89434;-86
2023/09/21 11:08:25;;;;;;;109.80;54.17;;;17.30;98.60;;;;;;4944330;28;91409;-86
2023/09/21 11:10:51;;;;;;;108.57;53.92;;;17.30;98.80;;;;;;4945458;28;93107;-85
2023/09/21 11:13:17;;;;;;;108.70;54.03;;;17.30;98.90;;;;;;4946838;28;89175;-85
2023/09/21 11:15:44;;;;;;;111.30;54.25;;;17.30;98.80;;;;;;4948176;28;91404;-83
2023/09/21 11:18:10;;;;;;;109.13;54.20;;;17.20;98.20;;;;;;4957824;28;91369;-87
2023/09/21 11:20:36;;;;;;;107.95;53.95;;;17.20;99.10;;;;;;4950403;28;93793;-87
2023/09/21 11:23:03;;;;;;;109.13;54.00;;;17.30;99.90;;;;;;4947925;28;89516;-83
2023/09/21 11:25:29;;;;;;;110.85;54.03;;;17.40;99.70;;;;;;4969740;28;89420;-82
2023/09/21 11:27:57;;;;;;;111.13;54.55;;;17.40;99.70;;;;;;4958332;28;90176;-85
2023/09/21 11:30:22;;;;;;;111.10;54.42;;;17.40;99.90;;;;;;4941890;28;92659;-84
2023/09/21 11:32:50;;;;;;;112.30;54.72;;;17.40;99.90;;;;;;4940047;28;89169;-83
2023/09/21 11:35:17;;;;;;;114.85;55.15;;;17.40;99.50;;;;;;4962209;28;88945;-88
2023/09/21 11:37:44;;;;;;;114.57;55.17;;;17.50;99.40;;;;;;4958914;28;91746;-84
2023/09/21 11:40:13;;;;;;;116.00;55.15;;;17.50;99.70;;;;;;4936244;28;92759;-85
2023/09/21 11:42:45;;;;;;;111.07;54.42;;;17.60;99.50;;;;;;4943556;28;90156;-84
2023/09/21 11:45:17;;;;;;;110.57;54.17;;;17.50;99.30;;;;;;4943202;28;89237;-85
2023/09/21 11:47:54;;;;;;;108.38;54.35;;;17.50;99.20;;;;;;4956987;28;89767;-86
2023/09/21 11:50:33;;;;;;;107.15;54.03;;;17.50;99.60;;;;;;4964327;28;92344;-84
2023/09/21 11:52:59;;;;;;;108.53;54.22;;;17.40;99.60;;;;;;4959701;28;89458;-85
2023/09/21 11:55:27;;;;;;;108.72;54.22;;;17.50;99.90;;;;;;4968696;28;90356;-83
2023/09/21 11:58:04;;;;;;;107.20;53.88;;;17.40;99.90;;;;;;4977170;28;91862;-87
2023/09/21 12:00:43;;;;;;;108.65;54.10;;;17.40;99.80;;;;;;4966671;28;91572;-87
2023/09/21 12:03:13;;;;;;;107.53;54.17;;;17.50;99.90;;;;;;4977038;28;89469;-80
2023/09/21 12:05:45;;;;;;;108.90;54.33;;;17.60;99.90;;;;;;4958661;28;89515;-84
2023/09/21 12:08:14;;;;;;;106.97;53.88;;;17.60;99.90;;;;;;4974544;28;94712;-84
2023/09/21 12:10:47;;;;;;;107.50;53.92;;;17.80;99.90;;;;;;4961247;28;95162;-86
2023/09/21 12:13:15;;;;;;;108.05;54.30;;;17.80;99.90;;;;;;4976137;28;89496;-84
2023/09/21 12:15:44;;;;;;;109.18;54.22;;;17.80;99.80;;;;;;4979107;28;89267;-87
2023/09/21 12:18:10;;;;;;;108.03;54.28;;;17.70;99.70;;;;;;4965957;28;93401;-85
2023/09/21 12:20:38;;;;;;;109.93;54.35;;;17.60;99.90;;;;;;4967706;28;93875;-86